Time;durP1;ratioP1;P1;durP2;ratioP2;P2;SDS_P1;SDS_P2;PMS_P1;PMS_P2;Temp;Humidity;BMP_temperature;BMP_pressure;BME280_temperature;BME280_humidity;BME280_pressure;Samples;Min_cycle;Max_cycle;Signal;HPM_P1;HPM_P2
2021/11/22 00:00:46;;;;;;;5.72;2.17;;;;;;;1.73;100.00;101760.22;4894047;29;20046;-74
2021/11/22 00:03:13;;;;;;;3.63;1.77;;;;;;;1.68;100.00;101762.16;4908885;29;20501;-76
2021/11/22 00:05:39;;;;;;;6.82;1.80;;;;;;;1.72;100.00;101755.94;4907727;29;20072;-75
2021/11/22 00:08:06;;;;;;;4.22;1.70;;;;;;;1.77;100.00;101773.00;4893285;29;20115;-75
2021/11/22 00:10:34;;;;;;;6.60;2.08;;;;;;;1.72;100.00;101765.47;4895040;29;20623;-78
2021/11/22 00:12:59;;;;;;;7.30;1.70;;;;;;;1.63;100.00;101764.09;4910468;29;20040;-77
2021/11/22 00:15:26;;;;;;;7.75;2.03;;;;;;;1.59;100.00;101770.28;4908765;29;20036;-76
2021/11/22 00:17:52;;;;;;;4.40;1.90;;;;;;;1.67;100.00;101775.16;4894979;29;20150;-76
2021/11/22 00:20:20;;;;;;;11.23;1.83;;;;;;;1.69;100.00;101774.16;4889776;29;20035;-76
2021/11/22 00:22:46;;;;;;;2.83;1.80;;;;;;;1.57;100.00;101769.50;4910365;29;20039;-75
2021/11/22 00:25:14;;;;;;;4.47;1.50;;;;;;;1.53;100.00;101784.31;4911049;29;20399;-75
2021/11/22 00:27:39;;;;;;;4.78;2.00;;;;;;;1.47;100.00;101796.63;4909689;29;20424;-75
2021/11/22 00:30:18;;;;;;;8.98;1.85;;;;;;;1.52;100.00;101802.47;4880965;29;20047;-76
2021/11/22 00:32:57;;;;;;;6.45;2.50;;;;;;;1.45;100.00;101807.06;4877457;29;20178;-75
2021/11/22 00:35:32;;;;;;;3.97;1.25;;;;;;;1.34;100.00;101797.16;4893317;29;20128;-75
2021/11/22 00:38:00;;;;;;;2.25;1.38;;;;;;;1.30;100.00;101805.94;4909733;29;20111;-76
2021/11/22 00:40:26;;;;;;;3.53;1.65;;;;;;;1.28;100.00;101812.91;4909947;29;20037;-75
2021/11/22 00:42:52;;;;;;;3.45;1.15;;;;;;;1.25;100.00;101815.59;4896441;29;20127;-76
2021/11/22 00:45:18;;;;;;;4.50;1.40;;;;;;;1.13;100.00;101816.06;4875599;29;20080;-76
2021/11/22 00:47:45;;;;;;;3.20;1.52;;;;;;;1.13;100.00;101814.34;4896688;29;20044;-75
2021/11/22 00:50:12;;;;;;;1.98;1.40;;;;;;;1.13;100.00;101816.06;4906573;29;20043;-75
2021/11/22 00:52:37;;;;;;;5.60;1.38;;;;;;;1.04;100.00;101821.63;4896894;29;20051;-75
2021/11/22 00:55:05;;;;;;;4.95;1.50;;;;;;;1.02;100.00;101824.25;4896721;29;20506;-76
2021/11/22 00:57:30;;;;;;;2.92;1.52;;;;;;;0.92;100.00;101828.94;4894348;29;20044;-75
2021/11/22 00:59:57;;;;;;;2.75;1.50;;;;;;;1.10;100.00;101837.72;4911431;29;20044;-77
2021/11/22 01:02:22;;;;;;;4.22;1.50;;;;;;;1.07;100.00;101834.41;4897149;29;20503;-77
2021/11/22 01:04:48;;;;;;;5.55;1.40;;;;;;;0.98;100.00;101838.19;4897611;29;20032;-76
2021/11/22 01:07:14;;;;;;;6.10;1.67;;;;;;;0.96;100.00;101852.88;4895821;29;20044;-76
2021/11/22 01:09:39;;;;;;;5.13;1.50;;;;;;;0.90;100.00;101842.78;4901473;29;20048;-75
2021/11/22 01:12:05;;;;;;;4.15;1.40;;;;;;;0.93;100.00;101851.25;4906136;29;20065;-76
2021/11/22 01:14:32;;;;;;;3.65;1.40;;;;;;;0.89;100.00;101854.03;4907524;29;20041;-76
2021/11/22 01:16:58;;;;;;;6.50;1.52;;;;;;;0.82;100.00;101861.16;4893014;29;20048;-76
2021/11/22 01:19:23;;;;;;;8.02;1.85;;;;;;;0.87;100.00;101869.56;4894485;29;20404;-76
2021/11/22 01:21:49;;;;;;;5.95;1.67;;;;;;;0.83;100.00;101880.06;4913402;29;20040;-76
2021/11/22 01:24:14;;;;;;;4.85;1.50;;;;;;;0.79;100.00;101889.66;4911182;29;20118;-76
2021/11/22 01:26:40;;;;;;;6.72;1.95;;;;;;;0.82;100.00;101891.31;4910746;29;20795;-75
2021/11/22 01:29:07;;;;;;;3.60;1.17;;;;;;;0.77;100.00;101892.31;4896764;29;20043;-76
2021/11/22 01:31:32;;;;;;;3.60;1.35;;;;;;;0.76;100.00;101900.97;4911153;29;20044;-76
2021/11/22 01:33:58;;;;;;;5.28;1.40;;;;;;;0.83;100.00;101905.91;4897445;29;20039;-77
2021/11/22 01:36:24;;;;;;;4.32;1.50;;;;;;;0.88;100.00;101904.81;4884702;29;20036;-76
2021/11/22 01:38:50;;;;;;;6.85;1.63;;;;;;;0.86;100.00;101911.78;4895780;29;20043;-75
2021/11/22 01:41:15;;;;;;;5.05;1.50;;;;;;;0.75;100.00;101919.94;4909507;29;20032;-75
2021/11/22 01:43:41;;;;;;;4.82;1.38;;;;;;;0.74;100.00;101926.00;4909803;29;20566;-75
2021/11/22 01:46:15;;;;;;;4.32;1.17;;;;;;;0.70;100.00;101916.69;4889588;29;20367;-75
2021/11/22 01:48:40;;;;;;;6.50;1.50;;;;;;;0.67;100.00;101927.09;4905221;29;20059;-76
2021/11/22 01:51:06;;;;;;;3.97;1.30;;;;;;;0.61;100.00;101924.75;4908264;29;20044;-75
2021/11/22 01:53:32;;;;;;;5.70;1.08;;;;;;;0.64;100.00;101931.53;4891188;29;20051;-76
2021/11/22 01:55:57;;;;;;;8.05;1.15;;;;;;;0.62;100.00;101938.50;4910096;29;20040;-75
2021/11/22 01:58:23;;;;;;;5.65;1.45;;;;;;;0.56;100.00;101942.97;4909404;29;20039;-76
2021/11/22 02:00:55;;;;;;;3.53;0.90;;;;;;;0.63;100.00;101927.28;4892576;29;20050;-76
2021/11/22 02:03:21;;;;;;;5.22;1.15;;;;;;;0.62;100.00;101944.50;4904001;29;20031;-75
2021/11/22 02:05:51;;;;;;;4.53;1.05;;;;;;;0.53;100.00;101944.81;4902826;29;20060;-75
2021/11/22 02:08:18;;;;;;;4.60;0.90;;;;;;;0.44;100.00;101955.47;4893986;29;20139;-73
2021/11/22 02:10:44;;;;;;;6.28;1.20;;;;;;;0.41;100.00;101965.88;4915361;29;20062;-75
2021/11/22 02:13:10;;;;;;;6.05;0.93;;;;;;;0.31;100.00;101961.03;4882647;29;20043;-76
2021/11/22 02:15:36;;;;;;;4.38;1.50;;;;;;;0.29;100.00;101967.13;4900166;29;20028;-77
2021/11/22 02:18:02;;;;;;;3.40;0.90;;;;;;;0.16;100.00;101959.78;4913163;29;20498;-78
2021/11/22 02:20:29;;;;;;;6.70;0.90;;;;;;;0.11;100.00;101964.22;4880730;29;20036;-77
2021/11/22 02:22:59;;;;;;;3.85;0.90;;;;;;;0.13;100.00;101965.06;4913281;29;20122;-76
2021/11/22 02:25:27;;;;;;;6.28;1.10;;;;;;;0.14;100.00;101976.22;4896115;29;20131;-77
2021/11/22 02:27:53;;;;;;;5.50;0.88;;;;;;;0.10;100.00;101970.31;4879817;29;20589;-77
2021/11/22 02:30:24;;;;;;;4.05;0.88;;;;;;;0.11;100.00;101977.13;4896054;29;20131;-77
2021/11/22 02:32:49;;;;;;;8.77;1.20;;;;;;;0.13;100.00;101975.38;4911660;29;20155;-78
2021/11/22 02:35:20;;;;;;;4.45;1.10;;;;;;;0.13;100.00;101967.63;4905787;29;20157;-77
2021/11/22 02:37:47;;;;;;;2.72;0.95;;;;;;;0.07;100.00;101966.97;4895559;29;20059;-77
2021/11/22 02:40:13;;;;;;;3.00;1.05;;;;;;;0.11;100.00;101977.13;4911195;29;20047;-77
2021/11/22 02:42:42;;;;;;;2.47;0.85;;;;;;;0.11;100.00;101984.03;4905352;29;20036;-77
2021/11/22 02:45:13;;;;;;;2.65;1.13;;;;;;;0.07;100.00;101993.59;4911707;29;20115;-78
2021/11/22 02:47:41;;;;;;;2.75;0.95;;;;;;;0.04;100.00;101998.03;4906422;29;20126;-77
2021/11/22 02:50:11;;;;;;;3.33;1.10;;;;;;;-0.04;100.00;101993.97;4912929;29;20455;-77
2021/11/22 02:52:38;;;;;;;4.78;1.10;;;;;;;-0.03;100.00;102002.53;4912763;29;20043;-76
2021/11/22 02:55:06;;;;;;;5.07;1.00;;;;;;;-0.08;100.00;102001.84;4897035;29;20044;-77
2021/11/22 02:57:32;;;;;;;2.53;1.10;;;;;;;-0.09;100.00;102005.31;4893746;29;20040;-77
2021/11/22 02:59:58;;;;;;;6.60;1.13;;;;;;;-0.12;100.00;101998.50;4896100;29;20446;-74
2021/11/22 03:02:23;;;;;;;3.53;0.80;;;;;;;-0.08;100.00;102015.56;4909000;29;20079;-77
2021/11/22 03:04:49;;;;;;;5.13;1.42;;;;;;;0.01;100.00;102011.03;4911351;29;20039;-76
2021/11/22 03:07:15;;;;;;;4.35;1.23;;;;;;;0.01;100.00;102013.63;4893705;29;20059;-77
2021/11/22 03:09:41;;;;;;;6.60;1.30;;;;;;;-0.13;100.00;102020.03;4911706;29;20075;-76
2021/11/22 03:12:09;;;;;;;5.75;0.95;;;;;;;-0.14;100.00;102020.06;4913561;29;20446;-76
2021/11/22 03:14:36;;;;;;;5.65;1.52;;;;;;;-0.14;100.00;102026.06;4899915;29;20048;-76
2021/11/22 03:17:03;;;;;;;5.57;1.27;;;;;;;-0.22;100.00;102022.88;4916543;29;20047;-76
2021/11/22 03:19:29;;;;;;;4.13;1.40;;;;;;;-0.30;100.00;102022.25;4912775;29;20040;-76
2021/11/22 03:21:55;;;;;;;8.88;1.40;;;;;;;-0.28;100.00;102023.09;4911550;29;20031;-75
2021/11/22 03:24:21;;;;;;;3.75;1.10;;;;;;;-0.29;100.00;102029.94;4895463;29;20058;-75
2021/11/22 03:26:47;;;;;;;4.95;1.38;;;;;;;-0.23;100.00;102032.38;4898528;29;20058;-76
2021/11/22 03:29:13;;;;;;;4.43;1.15;;;;;;;-0.24;100.00;102037.56;4883818;29;20052;-76
2021/11/22 03:31:39;;;;;;;5.05;1.30;;;;;;;-0.34;100.00;102039.56;4908863;29;20536;-76
2021/11/22 03:34:09;;;;;;;4.65;1.23;;;;;;;-0.37;100.00;102041.38;4893161;29;20131;-77
2021/11/22 03:36:34;;;;;;;7.70;1.90;;;;;;;-0.37;100.00;102047.38;4898957;29;20051;-76
2021/11/22 03:39:05;;;;;;;5.50;2.00;;;;;;;-0.40;100.00;102040.59;4914682;29;20028;-76
2021/11/22 03:41:33;;;;;;;6.18;2.70;;;;;;;-0.42;100.00;102062.13;4925697;29;20414;-75
2021/11/22 03:44:10;;;;;;;9.50;3.60;;;;;;;-0.41;100.00;102053.53;4899968;29;20039;-75
2021/11/22 03:46:37;;;;;;;8.07;3.63;;;;;;;-0.43;100.00;102066.44;4895586;29;20036;-76
2021/11/22 03:49:03;;;;;;;8.98;5.30;;;;;;;-0.43;100.00;102055.31;4915365;29;20051;-76
2021/11/22 03:51:29;;;;;;;13.40;5.43;;;;;;;-0.47;100.00;102066.56;4900121;29;20048;-77
2021/11/22 03:53:55;;;;;;;12.30;5.93;;;;;;;-0.47;100.00;102070.00;4899116;29;20039;-76
2021/11/22 03:56:20;;;;;;;10.80;6.40;;;;;;;-0.49;100.00;102065.75;4912981;29;20489;-76
2021/11/22 03:58:46;;;;;;;12.10;6.90;;;;;;;-0.49;100.00;102071.78;4914646;29;20494;-77
2021/11/22 04:01:12;;;;;;;8.98;6.10;;;;;;;-0.53;100.00;102069.31;4913690;29;20032;-76
2021/11/22 04:03:38;;;;;;;9.02;5.53;;;;;;;-0.50;100.00;102071.81;4901094;29;20036;-76
2021/11/22 04:06:03;;;;;;;10.07;5.80;;;;;;;-0.56;100.00;102065.09;4899453;29;20146;-76
2021/11/22 04:08:29;;;;;;;7.80;5.05;;;;;;;-0.55;100.00;102081.41;4914655;29;20047;-76
2021/11/22 04:10:55;;;;;;;10.77;4.40;;;;;;;-0.57;100.00;102076.28;4897854;29;20032;-75
2021/11/22 04:13:21;;;;;;;10.70;3.88;;;;;;;-0.52;100.00;102084.75;4912346;29;20111;-75
2021/11/22 04:15:46;;;;;;;11.48;4.00;;;;;;;-0.56;100.00;102082.31;4900078;29;20055;-76
2021/11/22 04:18:13;;;;;;;10.13;4.35;;;;;;;-0.64;100.00;102085.06;4898150;29;20112;-74
2021/11/22 04:20:39;;;;;;;7.65;4.13;;;;;;;-0.65;100.00;102096.28;4914295;29;20037;-76
2021/11/22 04:23:06;;;;;;;12.25;4.60;;;;;;;-0.65;100.00;102099.69;4913369;29;20032;-77
2021/11/22 04:25:32;;;;;;;7.13;3.60;;;;;;;-0.70;100.00;102090.41;4898657;29;20127;-77
2021/11/22 04:27:58;;;;;;;6.45;3.05;;;;;;;-0.68;100.00;102099.78;4913472;29;20058;-75
2021/11/22 04:30:24;;;;;;;8.27;3.00;;;;;;;-0.75;100.00;102087.09;4896895;29;20044;-76
2021/11/22 04:32:50;;;;;;;7.18;3.95;;;;;;;-0.72;100.00;102095.59;4905656;29;20467;-76
2021/11/22 04:35:16;;;;;;;7.82;2.85;;;;;;;-0.68;100.00;102106.66;4910570;29;20047;-76
2021/11/22 04:37:43;;;;;;;4.50;2.35;;;;;;;-0.68;100.00;102106.66;4883450;29;20485;-78
2021/11/22 04:40:13;;;;;;;5.35;2.17;;;;;;;-0.65;100.00;102104.00;4909504;29;20554;-76
2021/11/22 04:42:39;;;;;;;8.82;2.28;;;;;;;-0.70;100.00;102109.25;4906930;29;20047;-76
2021/11/22 04:45:06;;;;;;;11.23;2.60;;;;;;;-0.77;100.00;102118.06;4897399;29;20653;-75
2021/11/22 04:47:34;;;;;;;6.28;2.00;;;;;;;-0.78;100.00;102113.78;4895133;29;20367;-78
2021/11/22 04:50:00;;;;;;;6.50;2.17;;;;;;;-0.79;100.00;102112.94;4912823;29;20040;-76
2021/11/22 04:52:26;;;;;;;5.30;1.98;;;;;;;-0.79;100.00;102127.56;4895039;29;20712;-75
2021/11/22 04:54:51;;;;;;;4.60;2.20;;;;;;;-0.76;100.00;102129.22;4911524;29;20036;-76
2021/11/22 04:57:17;;;;;;;6.97;2.05;;;;;;;-0.76;100.00;102137.78;4911604;29;20142;-76
2021/11/22 04:59:43;;;;;;;6.78;2.20;;;;;;;-0.81;100.00;102145.63;4897979;29;20095;-76
2021/11/22 05:02:10;;;;;;;5.35;1.88;;;;;;;-0.79;100.00;102145.59;4911348;29;20044;-77
2021/11/22 05:04:36;;;;;;;9.32;2.45;;;;;;;-0.76;100.00;102157.56;4913519;29;20086;-76
2021/11/22 05:07:03;;;;;;;4.43;2.40;;;;;;;-0.70;100.00;102153.06;4890832;29;20050;-76
2021/11/22 05:09:29;;;;;;;4.85;2.30;;;;;;;-0.66;100.00;102159.88;4911586;29;20442;-76
2021/11/22 05:11:55;;;;;;;5.93;2.85;;;;;;;-0.45;100.00;102158.47;4910984;29;20438;-77
2021/11/22 05:14:21;;;;;;;6.88;2.53;;;;;;;-0.47;100.00;102161.94;4881063;29;20043;-76
2021/11/22 05:16:47;;;;;;;9.65;2.88;;;;;;;-0.38;100.00;102159.13;4898077;29;20071;-76
2021/11/22 05:19:13;;;;;;;10.05;2.53;;;;;;;-0.43;100.00;102166.16;4910049;29;20143;-76
2021/11/22 05:21:39;;;;;;;9.15;2.42;;;;;;;-0.52;100.00;102169.81;4892349;29;20463;-76
2021/11/22 05:24:06;;;;;;;7.50;2.85;;;;;;;-0.40;100.00;102166.06;4912164;29;20036;-78
2021/11/22 05:26:32;;;;;;;5.07;3.00;;;;;;;-0.44;100.00;102180.75;4909657;29;20068;-76
2021/11/22 05:28:59;;;;;;;7.32;2.47;;;;;;;-0.37;100.00;102176.28;4882894;29;20123;-76
2021/11/22 05:31:25;;;;;;;8.45;2.72;;;;;;;-0.41;100.00;102179.84;4896944;29;20063;-76
2021/11/22 05:33:52;;;;;;;9.05;2.83;;;;;;;-0.42;100.00;102191.03;4913014;29;20169;-76
2021/11/22 05:36:18;;;;;;;6.25;3.00;;;;;;;-0.38;100.00;102190.06;4879951;29;20046;-76
2021/11/22 05:38:44;;;;;;;8.23;3.13;;;;;;;-0.50;100.00;102180.91;4893770;29;20071;-76
2021/11/22 05:41:10;;;;;;;6.65;3.90;;;;;;;-0.47;100.00;102188.59;4908476;29;20392;-76
2021/11/22 05:43:36;;;;;;;6.63;3.65;;;;;;;-0.52;100.00;102184.44;4897906;29;20035;-76
2021/11/22 05:46:03;;;;;;;7.15;3.13;;;;;;;-0.50;100.00;102204.13;4910017;29;20458;-75
2021/11/22 05:48:29;;;;;;;8.07;3.70;;;;;;;-0.60;100.00;102198.38;4907706;29;20042;-76
2021/11/22 05:50:56;;;;;;;6.03;3.50;;;;;;;-0.56;100.00;102200.88;4896620;29;20040;-76
2021/11/22 05:53:22;;;;;;;7.22;3.33;;;;;;;-0.61;100.00;102209.53;4896125;29;20048;-76
2021/11/22 05:55:51;;;;;;;7.32;3.53;;;;;;;-0.64;100.00;102211.34;4891703;29;20048;-76
2021/11/22 05:58:19;;;;;;;5.93;3.47;;;;;;;-0.73;100.00;102207.28;4894350;29;20044;-76
2021/11/22 06:00:46;;;;;;;8.00;3.63;;;;;;;-0.72;100.00;102214.13;4910264;29;20044;-76
2021/11/22 06:03:12;;;;;;;7.88;3.63;;;;;;;-0.74;100.00;102222.78;4887114;29;20040;-75
2021/11/22 06:05:38;;;;;;;9.38;3.72;;;;;;;-0.75;100.00;102219.38;4895898;29;20574;-75
2021/11/22 06:08:04;;;;;;;13.45;4.32;;;;;;;-0.80;100.00;102219.47;4905333;29;20039;-75
2021/11/22 06:10:30;;;;;;;7.88;4.85;;;;;;;-0.76;100.00;102230.53;4896509;29;20503;-75
2021/11/22 06:12:56;;;;;;;12.02;4.50;;;;;;;-0.81;100.00;102227.22;4896712;29;20040;-75
2021/11/22 06:15:22;;;;;;;7.95;5.22;;;;;;;-0.83;100.00;102232.44;4913255;29;20036;-75
2021/11/22 06:17:48;;;;;;;10.93;5.18;;;;;;;-0.83;100.00;102231.56;4891457;29;20432;-75
2021/11/22 06:20:14;;;;;;;11.05;4.90;;;;;;;-0.85;100.00;102228.19;4891633;29;20040;-77
2021/11/22 06:22:40;;;;;;;10.18;5.18;;;;;;;-0.83;100.00;102241.88;4897459;29;20168;-75
2021/11/22 06:25:06;;;;;;;12.60;6.18;;;;;;;-0.76;100.00;102243.41;4888769;29;20040;-76
2021/11/22 06:27:32;;;;;;;11.52;5.70;;;;;;;-0.79;100.00;102251.25;4916441;29;20047;-76
2021/11/22 06:29:58;;;;;;;12.07;5.10;;;;;;;-0.84;100.00;102250.50;4908980;29;20123;-77
2021/11/22 06:32:28;;;;;;;13.82;5.70;;;;;;;-0.87;100.00;102243.66;4892775;29;20144;-77
2021/11/22 06:34:54;;;;;;;12.82;5.63;;;;;;;-0.81;100.00;102251.28;4911780;29;20411;-76
2021/11/22 06:37:25;;;;;;;11.50;5.60;;;;;;;-0.82;100.00;102261.63;4897639;29;20044;-76
2021/11/22 06:39:52;;;;;;;10.43;5.53;;;;;;;-0.84;100.00;102264.22;4911627;29;20064;-76
2021/11/22 06:42:20;;;;;;;14.73;5.40;;;;;;;-0.86;100.00;102271.13;4908409;29;20051;-76
2021/11/22 06:44:47;;;;;;;10.15;5.80;;;;;;;-0.87;100.00;102277.16;4894151;29;20076;-77
2021/11/22 06:47:13;;;;;;;11.25;5.57;;;;;;;-0.83;100.00;102286.53;4908292;29;20044;-77
2021/11/22 06:49:38;;;;;;;12.32;5.70;;;;;;;-0.85;100.00;102282.28;4895608;29;20068;-77
2021/11/22 06:52:04;;;;;;;12.88;5.82;;;;;;;-0.87;100.00;102290.03;4894802;29;20056;-77
2021/11/22 06:54:30;;;;;;;11.48;6.22;;;;;;;-0.85;100.00;102295.16;4892486;29;20047;-76
2021/11/22 06:56:56;;;;;;;10.65;5.90;;;;;;;-0.88;100.00;102306.41;4895823;29;20093;-76
2021/11/22 06:59:22;;;;;;;13.18;6.25;;;;;;;-0.83;100.00;102314.00;4895201;29;20132;-76
2021/11/22 07:01:48;;;;;;;11.95;5.78;;;;;;;-0.85;100.00;102310.63;4894390;29;20121;-76
2021/11/22 07:04:14;;;;;;;12.90;5.90;;;;;;;-0.84;100.00;102314.91;4909367;29;20551;-77
2021/11/22 07:06:40;;;;;;;10.25;5.72;;;;;;;-0.78;100.00;102317.34;4913217;29;20044;-76
2021/11/22 07:09:07;;;;;;;11.73;6.32;;;;;;;-0.75;100.00;102314.69;4894919;29;20040;-76
2021/11/22 07:11:32;;;;;;;10.15;6.25;;;;;;;-0.75;100.00;102319.84;4901897;29;20114;-74
2021/11/22 07:14:00;;;;;;;14.32;6.75;;;;;;;-0.76;100.00;102318.16;4916647;29;20339;-77
2021/11/22 07:16:26;;;;;;;13.55;6.45;;;;;;;-0.72;100.00;102329.22;4900753;29;20040;-74
2021/11/22 07:18:51;;;;;;;13.48;5.90;;;;;;;-0.71;100.00;102331.78;4889704;29;20058;-75
2021/11/22 07:21:17;;;;;;;14.43;6.68;;;;;;;-0.72;100.00;102331.81;4895488;29;20047;-75
2021/11/22 07:23:42;;;;;;;13.73;5.63;;;;;;;-0.80;100.00;102332.81;4910681;29;20071;-75
2021/11/22 07:26:08;;;;;;;12.95;6.18;;;;;;;-0.82;100.00;102338.91;4908554;29;20048;-75
2021/11/22 07:28:34;;;;;;;11.25;5.38;;;;;;;-0.78;100.00;102348.25;4907707;29;20055;-75
2021/11/22 07:31:00;;;;;;;12.40;5.72;;;;;;;-0.80;100.00;102350.88;4908656;29;20458;-76
2021/11/22 07:33:25;;;;;;;12.45;6.10;;;;;;;-0.77;100.00;102349.97;4894328;29;20067;-75
2021/11/22 07:35:51;;;;;;;9.98;5.80;;;;;;;-0.74;100.00;102349.03;4910422;29;20032;-76
2021/11/22 07:38:18;;;;;;;12.55;5.93;;;;;;;-0.73;100.00;102353.31;4893825;29;20036;-76
2021/11/22 07:40:45;;;;;;;12.25;6.38;;;;;;;-0.70;100.00;102361.81;4907460;29;20436;-75
2021/11/22 07:43:10;;;;;;;10.98;6.18;;;;;;;-0.66;100.00;102360.88;4910790;29;20473;-75
2021/11/22 07:45:36;;;;;;;12.93;6.55;;;;;;;-0.66;100.00;102355.72;4911050;29;20036;-77
2021/11/22 07:48:03;;;;;;;12.20;6.20;;;;;;;-0.57;100.00;102372.69;4908748;29;20047;-76
2021/11/22 07:50:30;;;;;;;13.57;7.15;;;;;;;-0.50;100.00;102369.09;4892735;29;20528;-75
2021/11/22 07:52:56;;;;;;;15.43;7.65;;;;;;;-0.47;100.00;102379.34;4908039;29;20040;-75
2021/11/22 07:55:23;;;;;;;15.63;7.55;;;;;;;-0.34;100.00;102368.75;4892863;29;20151;-76
2021/11/22 07:57:53;;;;;;;13.32;7.68;;;;;;;-0.25;100.00;102378.84;4911203;29;20047;-76
2021/11/22 08:00:21;;;;;;;16.08;7.53;;;;;;;-0.25;100.00;102377.09;4912674;29;20031;-73
2021/11/22 08:02:47;;;;;;;13.40;6.93;;;;;;;-0.22;100.00;102383.94;4897706;29;20042;-75
2021/11/22 08:05:13;;;;;;;17.38;7.30;;;;;;;-0.17;100.00;102384.69;4882766;29;20032;-75
2021/11/22 08:07:41;;;;;;;17.75;7.47;;;;;;;-0.14;100.00;102386.31;4905973;29;20064;-75
2021/11/22 08:10:30;;;;;;;10.48;6.43;;;;;;;-0.03;100.00;102387.75;4911345;29;20040;-77
2021/11/22 08:13:08;;;;;;;14.00;7.18;;;;;;;0.11;100.00;102383.97;4898733;29;20071;-75
2021/11/22 08:15:36;;;;;;;22.83;7.85;;;;;;;0.11;100.00;102383.97;4914299;29;20040;-76
2021/11/22 08:18:05;;;;;;;13.80;7.18;;;;;;;0.25;100.00;102393.97;4883623;29;20036;-76
2021/11/22 08:20:32;;;;;;;17.23;8.27;;;;;;;0.43;100.00;102390.03;4912875;29;20055;-76
2021/11/22 08:22:59;;;;;;;12.80;7.28;;;;;;;0.45;100.00;102391.69;4912994;29;20040;-76
2021/11/22 08:25:29;;;;;;;11.07;7.07;;;;;;;0.56;100.00;102405.16;4897557;29;20044;-75
2021/11/22 08:27:55;;;;;;;13.05;7.47;;;;;;;0.61;100.00;102405.06;4897805;29;20040;-76
2021/11/22 08:30:23;;;;;;;15.18;7.43;;;;;;;0.67;100.00;102409.22;4911920;29;20518;-77
2021/11/22 08:32:51;;;;;;;19.10;8.20;;;;;;;0.74;100.00;102409.00;4898390;29;20032;-75
2021/11/22 08:35:19;;;;;;;17.27;8.05;;;;;;;0.79;100.00;102416.59;4908477;29;20135;-75
2021/11/22 08:37:45;;;;;;;15.98;7.93;;;;;;;0.88;100.00;102416.34;4911334;29;20036;-75
2021/11/22 08:40:15;;;;;;;20.13;8.95;;;;;;;1.02;100.00;102412.53;4911704;29;20066;-75
2021/11/22 08:42:40;;;;;;;20.63;8.77;;;;;;;1.12;100.00;102413.97;4893006;29;20052;-75
2021/11/22 08:45:07;;;;;;;15.52;8.23;;;;;;;1.17;100.00;102419.88;4912816;29;20024;-75
2021/11/22 08:47:33;;;;;;;17.27;8.90;;;;;;;1.20;100.00;102426.66;4896505;29;20052;-76
2021/11/22 08:49:59;;;;;;;13.35;7.35;;;;;;;1.32;100.00;102431.50;4911737;29;20578;-76
2021/11/22 08:52:26;;;;;;;18.40;8.02;;;;;;;1.36;100.00;102426.19;4909885;29;20039;-76
2021/11/22 08:54:52;;;;;;;19.58;9.30;;;;;;;1.43;100.00;102429.44;4911350;29;20036;-76
2021/11/22 08:57:19;;;;;;;18.13;8.82;;;;;;;1.41;100.00;102426.03;4895328;29;20052;-76
2021/11/22 08:59:45;;;;;;;21.30;9.35;;;;;;;1.50;100.00;102441.28;4882775;29;20497;-76
2021/11/22 09:02:11;;;;;;;21.00;8.63;;;;;;;1.67;100.00;102438.16;4912514;29;20662;-75
2021/11/22 09:04:38;;;;;;;16.92;8.25;;;;;;;1.74;100.00;102444.00;4897891;29;20640;-76
2021/11/22 09:07:04;;;;;;;14.38;8.82;;;;;;;1.86;100.00;102448.78;4909708;29;20048;-77
2021/11/22 09:09:30;;;;;;;22.67;9.30;;;;;;;1.93;100.00;102446.88;4879203;29;20044;-76
2021/11/22 09:11:55;;;;;;;19.45;8.13;;;;;;;1.94;100.00;102448.53;4910176;29;20044;-77
2021/11/22 09:14:21;;;;;;;25.52;8.63;;;;;;;2.07;100.00;102449.88;4908960;29;20044;-76
2021/11/22 09:16:47;;;;;;;18.58;8.48;;;;;;;2.12;100.00;102447.97;4897575;29;20059;-77
2021/11/22 09:19:14;;;;;;;22.00;7.95;;;;;;;2.29;100.00;102456.94;4894895;29;20039;-76
2021/11/22 09:21:40;;;;;;;14.00;7.72;;;;;;;2.34;100.00;102458.47;4911937;29;20505;-75
2021/11/22 09:24:07;;;;;;;16.58;7.68;;;;;;;2.31;100.00;102449.94;4911224;29;20399;-76
2021/11/22 09:26:34;;;;;;;18.40;7.93;;;;;;;2.35;100.00;102454.13;4910645;29;20071;-76
2021/11/22 09:29:01;;;;;;;13.95;7.38;;;;;;;2.45;100.00;102465.00;4916399;29;20087;-76
2021/11/22 09:31:26;;;;;;;21.63;6.38;;;;;;;2.52;100.00;102467.38;4895764;29;20047;-76
2021/11/22 09:33:53;;;;;;;11.48;5.85;;;;;;;2.55;100.00;102469.00;4912194;29;20040;-76
2021/11/22 09:36:20;;;;;;;16.90;6.10;;;;;;;2.62;100.00;102479.97;4912108;29;20048;-76
2021/11/22 09:38:47;;;;;;;19.25;6.50;;;;;;;2.75;100.00;102470.91;4909583;29;20661;-76
2021/11/22 09:41:13;;;;;;;13.88;5.93;;;;;;;2.75;100.00;102475.22;4913279;29;20040;-76
2021/11/22 09:43:47;;;;;;;11.57;5.78;;;;;;;2.80;100.00;102481.09;4909927;29;20024;-75
2021/11/22 09:46:13;;;;;;;13.65;6.60;;;;;;;2.86;100.00;102486.06;4911013;29;20036;-76
2021/11/22 09:48:40;;;;;;;15.80;6.93;;;;;;;2.86;100.00;102475.69;4896889;29;20039;-76
2021/11/22 09:51:09;;;;;;;21.20;7.45;;;;;;;2.91;100.00;102487.59;4912438;29;20047;-75
2021/11/22 09:53:35;;;;;;;19.13;7.28;;;;;;;2.90;100.00;102478.16;4896116;29;20078;-75
2021/11/22 09:56:01;;;;;;;14.18;6.72;;;;;;;2.98;100.00;102482.22;4895399;29;20415;-75
2021/11/22 09:58:26;;;;;;;22.30;6.20;;;;;;;3.04;100.00;102471.63;4912049;29;20053;-76
2021/11/22 10:00:55;;;;;;;17.65;6.60;;;;;;;3.19;100.00;102481.44;4898059;29;20040;-77
2021/11/22 10:03:24;;;;;;;15.45;6.13;;;;;;;3.28;100.00;102486.28;4912899;29;20091;-76
2021/11/22 10:06:02;;;;;;;18.92;6.72;;;;;;;3.30;100.00;102476.69;4907248;29;20859;-75
2021/11/22 10:08:28;;;;;;;15.60;6.18;;;;;;;3.42;100.00;102485.75;4894500;29;20036;-76
2021/11/22 10:11:00;;;;;;;16.67;6.03;;;;;;;3.56;100.00;102484.41;4897199;29;20051;-76
2021/11/22 10:13:36;;;;;;;14.77;6.13;;;;;;;3.63;100.00;102491.88;4896473;29;20047;-75
2021/11/22 10:16:08;;;;;;;16.52;6.38;;;;;;;3.71;100.00;102483.81;4911763;29;20078;-77
2021/11/22 10:18:45;;;;;;;10.13;5.80;;;;;;;3.75;100.00;102481.94;4911594;29;20095;-76
2021/11/22 10:21:17;;;;;;;11.02;5.60;;;;;;;3.74;100.00;102478.50;4901264;29;20875;-76
2021/11/22 10:23:45;;;;;;;12.40;6.50;;;;;;;3.85;100.00;102483.28;4913795;29;20035;-76
2021/11/22 10:26:14;;;;;;;20.02;6.53;;;;;;;3.96;100.00;102477.69;4910964;29;20199;-76
2021/11/22 10:28:49;;;;;;;12.32;6.75;;;;;;;4.00;100.00;102474.88;4907306;29;20029;-75
2021/11/22 10:31:18;;;;;;;18.65;7.30;;;;;;;4.06;100.00;102481.59;4907451;29;20069;-75
2021/11/22 10:33:46;;;;;;;16.02;6.60;;;;;;;4.05;100.00;102485.06;4912165;29;20040;-76
2021/11/22 10:36:16;;;;;;;15.07;5.97;;;;;;;4.07;100.00;102484.13;4908193;29;20036;-77
2021/11/22 10:38:45;;;;;;;16.05;5.00;;;;;;;4.10;100.00;102480.56;4905278;29;20044;-76
2021/11/22 10:41:16;;;;;;;13.30;4.78;;;;;;;4.07;100.00;102491.06;4895895;29;20058;-75
2021/11/22 10:43:50;;;;;;;8.95;4.40;;;;;;;4.13;100.00;102500.38;4908749;29;20067;-76
2021/11/22 10:46:21;;;;;;;10.27;4.07;;;;;;;4.13;100.00;102487.38;4913265;29;20592;-76
2021/11/22 10:48:50;;;;;;;10.35;3.63;;;;;;;4.25;100.00;102485.13;4914070;29;20036;-76
2021/11/22 10:51:27;;;;;;;10.98;3.83;;;;;;;4.26;100.00;102494.63;4887767;29;20040;-75
2021/11/22 10:54:03;;;;;;;12.27;4.15;;;;;;;4.28;100.00;102499.75;4907244;29;20040;-76
2021/11/22 10:56:45;;;;;;;9.80;3.63;;;;;;;4.34;100.00;102496.06;4892474;29;20040;-76
2021/11/22 10:59:22;;;;;;;10.57;3.47;;;;;;;4.38;100.00;102498.44;4893530;29;20765;-76
2021/11/22 11:01:51;;;;;;;13.15;2.97;;;;;;;4.38;100.00;102489.81;4891132;29;20134;-76
2021/11/22 11:04:31;;;;;;;8.02;2.97;;;;;;;4.51;100.00;102490.16;4909377;29;20455;-76
2021/11/22 11:07:06;;;;;;;9.27;3.28;;;;;;;4.53;100.00;102494.38;4894545;29;20044;-75
2021/11/22 11:09:37;;;;;;;9.25;2.53;;;;;;;4.54;100.00;102490.00;4907552;29;20112;-76
2021/11/22 11:12:05;;;;;;;7.32;2.60;;;;;;;4.59;100.00;102496.72;4910638;29;20095;-75
2021/11/22 11:14:32;;;;;;;6.47;2.50;;;;;;;4.55;100.00;102491.72;4894459;29;20056;-76
2021/11/22 11:17:11;;;;;;;4.47;2.17;;;;;;;4.60;100.00;102492.38;4907677;29;20044;-75